North Reading, Massachusetts
Current Conditions -  °F | °C
As of 2:05 AM on Wednesday 22 Oct 2014 (Local Time) from KBVY Reporting Station
Overcast Overcast  
Wind Chill: 50°   Ceiling: 500
Heat Index: 50°   Visibility: 10mi
Dew Point: 47°   Wind: 9mph
Humidity: 89%   Direction: 10°N
Pressure: 29.99"   Gusts: NA
Location:  42.57°N, 71.08°W
Report Text: KBVY 220605Z AUTO 01008KT 10SM OVC005 10/08 A2999 RMK AO2 T01000083
Loading
Personal Weather Stations






























Interactive Weather Map
Tropical Storm Tracking
New forecast layout! Learn more

10-Day Weather Forecast

Advertisements
Track Severe Weather on mobile